Time;durP1;ratioP1;P1;durP2;ratioP2;P2;SDS_P1;SDS_P2;PMS_P1;PMS_P2;Temp;Humidity;BMP_temperature;BMP_pressure;BME280_temperature;BME280_humidity;BME280_pressure;Samples;Min_cycle;Max_cycle;Signal;HPM_P1;HPM_P2
2022/10/27 00:01:16;;;;;;;10.40;5.75;;;15.40;83.00;;;;;;5026667;28;20458;-63
2022/10/27 00:03:41;;;;;;;11.77;5.40;;;15.40;83.10;;;;;;5013437;28;20025;-63
2022/10/27 00:06:07;;;;;;;12.40;5.35;;;15.40;83.10;;;;;;5026229;28;20022;-63
2022/10/27 00:08:34;;;;;;;11.98;5.15;;;15.40;83.10;;;;;;5021790;28;20382;-63
2022/10/27 00:11:03;;;;;;;10.43;5.53;;;15.40;83.10;;;;;;5035513;28;20036;-63
2022/10/27 00:13:29;;;;;;;9.20;4.57;;;15.40;83.20;;;;;;5018869;28;20058;-63
2022/10/27 00:15:59;;;;;;;9.30;4.90;;;15.40;83.20;;;;;;5015690;28;20426;-63
2022/10/27 00:18:25;;;;;;;13.05;5.00;;;15.50;83.30;;;;;;5013368;28;20050;-63
2022/10/27 00:21:05;;;;;;;9.73;5.05;;;15.40;83.90;;;;;;5011399;28;20483;-63
2022/10/27 00:23:30;;;;;;;12.43;5.40;;;15.40;83.30;;;;;;5009765;28;20446;-63
2022/10/27 00:25:57;;;;;;;10.80;5.25;;;15.40;83.20;;;;;;5015854;28;20052;-63
2022/10/27 00:28:23;;;;;;;10.32;5.25;;;15.50;83.30;;;;;;5013722;28;20419;-63
2022/10/27 00:30:57;;;;;;;9.25;4.93;;;15.40;83.20;;;;;;5016188;28;20026;-63
2022/10/27 00:33:23;;;;;;;10.00;4.63;;;15.40;83.20;;;;;;5015322;28;20041;-63
2022/10/27 00:35:48;;;;;;;10.82;5.50;;;15.40;83.30;;;;;;5015912;28;20107;-63
2022/10/27 00:38:14;;;;;;;10.10;5.45;;;15.40;83.20;;;;;;5013448;28;20421;-63
2022/10/27 00:40:39;;;;;;;11.40;4.95;;;15.40;83.30;;;;;;5014720;28;20109;-63
2022/10/27 00:43:27;;;;;;;11.50;5.40;;;15.30;83.20;;;;;;5015214;28;20439;-63
2022/10/27 00:45:55;;;;;;;9.48;4.72;;;15.30;83.10;;;;;;5014331;28;20026;-63
2022/10/27 00:48:23;;;;;;;9.48;5.20;;;15.30;83.20;;;;;;5013071;28;20026;-63
2022/10/27 00:50:49;;;;;;;14.45;5.20;;;15.30;83.20;;;;;;5015134;28;20319;-63
2022/10/27 00:53:14;;;;;;;9.68;4.95;;;15.30;83.20;;;;;;5014976;28;20026;-63
2022/10/27 00:55:40;;;;;;;9.00;5.00;;;15.20;83.20;;;;;;5014482;28;20061;-63
2022/10/27 00:58:10;;;;;;;9.85;5.13;;;15.30;83.20;;;;;;5012011;28;20030;-63
2022/10/27 01:00:38;;;;;;;10.07;5.15;;;15.20;83.20;;;;;;5015371;28;20092;-63
2022/10/27 01:03:06;;;;;;;9.93;4.95;;;15.20;83.20;;;;;;5013547;28;20045;-64
2022/10/27 01:05:33;;;;;;;10.93;5.40;;;15.20;83.20;;;;;;5012641;28;20029;-63
2022/10/27 01:08:02;;;;;;;11.70;4.97;;;15.10;83.20;;;;;;5027951;28;20056;-63
2022/10/27 01:10:28;;;;;;;9.43;4.88;;;15.10;83.20;;;;;;5014975;28;20084;-63
2022/10/27 01:12:57;;;;;;;11.00;5.28;;;15.10;83.20;;;;;;5014401;28;20021;-63
2022/10/27 01:15:58;;;;;;;10.35;5.22;;;15.10;83.20;;;;;;5014852;28;20454;-63
2022/10/27 01:18:52;;;;;;;9.57;5.23;;;15.10;83.20;;;;;;5012348;28;20141;-63
2022/10/27 01:21:36;;;;;;;10.52;5.07;;;15.10;83.20;;;;;;5015094;28;20289;-63
2022/10/27 01:24:32;;;;;;;8.65;4.65;;;15.10;83.20;;;;;;5014631;28;20491;-63
2022/10/27 01:27:02;;;;;;;9.90;4.80;;;15.10;83.20;;;;;;5014867;28;20127;-63
2022/10/27 01:29:27;;;;;;;10.75;5.03;;;15.10;83.30;;;;;;5014806;28;20017;-63
2022/10/27 01:31:58;;;;;;;9.63;5.00;;;15.00;83.30;;;;;;5034212;28;20338;-63
2022/10/27 01:34:28;;;;;;;10.60;5.72;;;15.10;83.30;;;;;;5023150;28;20092;-63
2022/10/27 01:37:04;;;;;;;9.10;4.45;;;15.00;83.20;;;;;;5030897;28;20398;-63
2022/10/27 01:39:41;;;;;;;9.55;4.82;;;15.00;83.20;;;;;;5027890;28;20033;-63
2022/10/27 01:42:16;;;;;;;9.23;4.70;;;15.00;83.30;;;;;;5034325;28;20037;-63
2022/10/27 01:44:49;;;;;;;9.60;4.70;;;15.00;83.30;;;;;;5024508;28;20060;-63
2022/10/27 01:47:15;;;;;;;9.93;4.80;;;15.00;83.20;;;;;;5016350;28;20121;-63
2022/10/27 01:49:42;;;;;;;14.38;5.60;;;14.90;83.20;;;;;;5023651;28;20358;-63
2022/10/27 01:52:54;;;;;;;11.75;4.80;;;14.90;83.10;;;;;;5033733;28;20026;-63
2022/10/27 01:55:19;;;;;;;;;;;14.90;83.00;;;;;;5018845;28;20399;-63
2022/10/27 01:57:48;;;;;;;11.63;4.20;;;14.90;83.20;;;;;;5027996;28;19916;-63
2022/10/27 02:00:14;;;;;;;8.65;4.53;;;14.80;83.10;;;;;;5025822;28;20029;-63
2022/10/27 02:02:47;;;;;;;8.35;4.55;;;14.80;83.10;;;;;;5017433;28;20030;-63
2022/10/27 02:05:57;;;;;;;9.15;4.80;;;14.80;83.20;;;;;;5020397;28;20035;-63
2022/10/27 02:08:36;;;;;;;9.02;4.55;;;14.90;83.20;;;;;;5015514;28;20046;-63
2022/10/27 02:11:07;;;;;;;7.88;4.47;;;14.90;83.20;;;;;;4991868;28;20100;-63
2022/10/27 02:13:36;;;;;;;8.77;4.38;;;14.80;83.20;;;;;;5009613;28;20479;-63
2022/10/27 02:16:24;;;;;;;7.95;4.30;;;14.80;83.20;;;;;;5004273;28;20038;-63
2022/10/27 02:19:00;;;;;;;7.90;4.55;;;14.90;83.20;;;;;;5011711;28;20060;-63
2022/10/27 02:21:26;;;;;;;11.05;5.10;;;14.90;83.30;;;;;;4996278;28;20061;-63
2022/10/27 02:23:52;;;;;;;8.88;4.90;;;14.80;83.30;;;;;;5004130;28;20441;-63
2022/10/27 02:26:25;;;;;;;9.73;4.57;;;14.90;83.40;;;;;;4997315;28;20121;-63
2022/10/27 02:28:56;;;;;;;9.70;4.97;;;14.80;83.30;;;;;;5002043;28;20113;-63
2022/10/27 02:31:24;;;;;;;;;;;14.90;83.40;;;;;;5008238;28;20445;-63
2022/10/27 02:33:51;;;;;;;7.75;4.25;;;14.90;83.30;;;;;;5004850;28;19997;-63
2022/10/27 02:36:17;;;;;;;8.57;4.47;;;14.80;83.30;;;;;;5005454;28;20038;-63
2022/10/27 02:38:43;;;;;;;9.95;4.53;;;14.80;83.40;;;;;;4988921;28;20070;-63
2022/10/27 02:41:08;;;;;;;9.75;4.47;;;14.90;83.40;;;;;;5005035;28;20112;-63
2022/10/27 02:43:34;;;;;;;10.10;4.68;;;14.80;83.40;;;;;;5000512;28;20042;-63
2022/10/27 02:46:00;;;;;;;9.65;4.70;;;14.90;83.50;;;;;;5014551;28;20077;-63
2022/10/27 02:48:25;;;;;;;9.98;4.80;;;14.80;83.50;;;;;;5015733;28;20060;-63
2022/10/27 02:50:51;;;;;;;9.52;4.95;;;14.80;83.50;;;;;;5018728;28;20248;-63
2022/10/27 02:53:16;;;;;;;11.88;4.90;;;14.80;83.50;;;;;;5031396;28;20058;-63
2022/10/27 02:55:42;;;;;;;9.55;5.32;;;14.90;83.60;;;;;;5018968;28;20442;-63
2022/10/27 02:58:07;;;;;;;8.32;4.60;;;14.80;83.50;;;;;;5036973;28;20021;-63
2022/10/27 03:00:33;;;;;;;10.07;5.00;;;14.80;83.50;;;;;;5026436;28;20435;-63
2022/10/27 03:02:59;;;;;;;9.43;4.72;;;14.80;83.50;;;;;;5026794;28;20037;-63
2022/10/27 03:05:24;;;;;;;11.60;4.93;;;14.80;83.50;;;;;;5020834;28;20038;-63
2022/10/27 03:07:50;;;;;;;8.57;5.15;;;14.80;83.60;;;;;;5032146;28;20088;-63
2022/10/27 03:10:15;;;;;;;11.18;5.22;;;14.80;83.50;;;;;;5028542;28;20033;-63
2022/10/27 03:12:41;;;;;;;9.27;5.15;;;14.70;83.50;;;;;;5031237;28;20335;-63
2022/10/27 03:15:07;;;;;;;8.82;5.07;;;14.70;83.50;;;;;;5018650;28;20022;-63
2022/10/27 03:17:33;;;;;;;9.68;5.15;;;14.70;83.50;;;;;;5024432;28;20029;-63
2022/10/27 03:19:59;;;;;;;10.05;5.70;;;14.70;83.50;;;;;;5016374;28;20041;-63
2022/10/27 03:22:25;;;;;;;11.48;6.32;;;14.70;83.50;;;;;;5042334;28;20080;-63
2022/10/27 03:24:51;;;;;;;8.98;5.55;;;14.70;83.60;;;;;;5031254;28;20406;-63
2022/10/27 03:27:16;;;;;;;11.02;5.25;;;14.70;83.50;;;;;;5027002;28;20047;-63
2022/10/27 03:29:42;;;;;;;9.40;5.25;;;14.70;83.60;;;;;;5018483;28;20035;-63
2022/10/27 03:32:08;;;;;;;10.60;5.57;;;14.70;84.20;;;;;;5020403;28;20030;-63
2022/10/27 03:34:33;;;;;;;9.48;5.85;;;14.70;83.50;;;;;;5030823;28;20030;-63
2022/10/27 03:36:59;;;;;;;8.48;5.10;;;14.60;83.40;;;;;;5023022;28;20033;-63
2022/10/27 03:39:24;;;;;;;10.98;5.30;;;14.60;83.40;;;;;;5036585;28;20029;-63
2022/10/27 03:41:50;;;;;;;9.30;5.30;;;14.70;83.50;;;;;;5025923;28;20034;-63
2022/10/27 03:44:16;;;;;;;12.05;5.93;;;14.60;83.40;;;;;;5023835;28;20037;-63
2022/10/27 03:46:41;;;;;;;9.15;5.13;;;14.60;83.40;;;;;;5031060;28;20514;-63
2022/10/27 03:49:07;;;;;;;9.57;5.00;;;14.60;83.50;;;;;;5029754;28;20102;-63
2022/10/27 03:51:33;;;;;;;8.63;5.32;;;14.60;83.50;;;;;;5027102;28;20026;-63
2022/10/27 03:53:59;;;;;;;13.05;5.68;;;14.60;83.50;;;;;;5033239;28;20038;-63
2022/10/27 03:56:24;;;;;;;8.98;5.40;;;14.60;83.50;;;;;;5024313;28;20072;-63
2022/10/27 03:58:50;;;;;;;10.40;5.88;;;14.60;83.50;;;;;;5027180;28;20509;-63
2022/10/27 04:01:15;;;;;;;11.32;6.10;;;14.60;83.50;;;;;;5029100;28;20029;-63
2022/10/27 04:03:41;;;;;;;11.00;6.20;;;14.60;83.50;;;;;;5016053;28;20083;-63
2022/10/27 04:06:06;;;;;;;11.48;6.43;;;14.60;83.50;;;;;;5021264;28;20449;-63
2022/10/27 04:08:32;;;;;;;9.90;6.47;;;14.60;83.50;;;;;;5022790;28;20026;-63
2022/10/27 04:10:58;;;;;;;14.30;8.02;;;14.60;83.50;;;;;;5023383;28;20026;-63
2022/10/27 04:13:23;;;;;;;13.48;6.85;;;14.60;83.40;;;;;;5044722;28;20034;-63
2022/10/27 04:15:49;;;;;;;15.85;7.85;;;14.60;83.50;;;;;;5034770;28;20045;-63
2022/10/27 04:18:14;;;;;;;15.65;8.25;;;14.60;83.50;;;;;;5027083;28;20121;-63
2022/10/27 04:20:40;;;;;;;13.40;7.50;;;14.60;83.50;;;;;;5033050;28;20465;-63
2022/10/27 04:23:06;;;;;;;14.85;7.55;;;14.60;83.50;;;;;;5029452;28;20034;-63
2022/10/27 04:25:31;;;;;;;14.18;7.57;;;14.60;83.50;;;;;;5036057;28;20108;-63
2022/10/27 04:28:07;;;;;;;12.80;6.90;;;14.60;83.60;;;;;;5029350;28;20046;-63
2022/10/27 04:30:33;;;;;;;13.75;7.20;;;14.60;83.60;;;;;;5031647;28;20029;-63
2022/10/27 04:32:59;;;;;;;12.25;6.10;;;14.60;83.70;;;;;;5025241;28;20036;-63
2022/10/27 04:35:25;;;;;;;14.13;6.70;;;14.50;83.60;;;;;;5034163;28;20112;-63
2022/10/27 04:37:53;;;;;;;13.18;6.15;;;14.60;83.70;;;;;;5022978;28;20025;-63
2022/10/27 04:40:18;;;;;;;12.13;6.70;;;14.50;83.60;;;;;;5028692;28;20061;-63
2022/10/27 04:42:45;;;;;;;11.18;6.60;;;14.50;83.60;;;;;;5021686;28;20065;-63
2022/10/27 04:45:11;;;;;;;10.27;6.03;;;14.50;83.60;;;;;;5013555;28;20038;-63
2022/10/27 04:47:37;;;;;;;12.05;6.82;;;14.50;83.60;;;;;;5016769;28;20117;-64
2022/10/27 04:50:03;;;;;;;8.90;5.82;;;14.50;83.60;;;;;;5030185;28;20454;-63
2022/10/27 04:52:29;;;;;;;11.77;5.97;;;14.50;83.70;;;;;;5014720;28;20037;-63
2022/10/27 04:54:54;;;;;;;10.20;5.82;;;14.50;83.70;;;;;;5013374;28;20033;-63
2022/10/27 04:57:20;;;;;;;10.95;6.05;;;14.50;83.70;;;;;;5013306;28;20030;-63
2022/10/27 04:59:45;;;;;;;9.65;5.90;;;14.40;83.60;;;;;;5011500;28;20022;-63
2022/10/27 05:02:11;;;;;;;10.65;6.20;;;14.50;83.60;;;;;;5010324;28;20482;-63
2022/10/27 05:04:37;;;;;;;10.63;6.50;;;14.40;83.60;;;;;;5009893;28;20111;-63
2022/10/27 05:07:02;;;;;;;10.65;5.70;;;14.40;83.60;;;;;;5008855;28;20041;-63
2022/10/27 05:09:28;;;;;;;9.55;5.72;;;14.40;83.60;;;;;;5014873;28;20022;-63
2022/10/27 05:11:53;;;;;;;10.65;5.95;;;14.40;83.60;;;;;;5016809;28;20025;-63
2022/10/27 05:14:19;;;;;;;11.23;5.70;;;14.40;83.60;;;;;;5017816;28;20018;-63
2022/10/27 05:16:45;;;;;;;10.40;5.90;;;14.40;84.30;;;;;;5022960;28;20100;-63
2022/10/27 05:19:10;;;;;;;9.48;5.25;;;14.30;83.60;;;;;;5028260;28;20046;-63
2022/10/27 05:21:36;;;;;;;12.60;6.03;;;14.40;83.60;;;;;;5029217;28;20351;-63
2022/10/27 05:24:02;;;;;;;8.10;5.03;;;14.30;83.50;;;;;;5017395;28;20374;-63
2022/10/27 05:26:27;;;;;;;8.82;5.32;;;14.30;83.60;;;;;;5021561;28;20029;-63
2022/10/27 05:28:53;;;;;;;10.02;4.75;;;14.30;83.60;;;;;;5027347;28;20026;-63
2022/10/27 05:31:18;;;;;;;10.68;5.20;;;14.30;83.60;;;;;;5029013;28;20374;-63
2022/10/27 05:33:44;;;;;;;10.02;5.50;;;14.30;83.60;;;;;;5033206;28;20022;-63
2022/10/27 05:36:10;;;;;;;8.82;5.32;;;14.30;83.60;;;;;;5033448;28;20095;-63
2022/10/27 05:38:37;;;;;;;9.60;6.32;;;14.30;83.60;;;;;;5033968;28;20362;-63
2022/10/27 05:41:03;;;;;;;8.80;5.68;;;14.30;83.60;;;;;;5029753;28;20030;-63
2022/10/27 05:43:28;;;;;;;10.80;6.20;;;14.30;83.60;;;;;;5013829;28;20096;-63
2022/10/27 05:45:54;;;;;;;9.73;5.82;;;14.30;83.50;;;;;;5021735;28;20029;-63
2022/10/27 05:48:20;;;;;;;10.93;6.25;;;14.30;83.60;;;;;;5022081;28;20120;-63
2022/10/27 05:50:50;;;;;;;11.18;5.88;;;14.30;83.50;;;;;;5016995;28;20502;-63
2022/10/27 05:53:15;;;;;;;10.27;6.55;;;14.30;83.60;;;;;;5018936;28;20060;-63
2022/10/27 05:55:41;;;;;;;11.32;6.60;;;14.30;83.60;;;;;;5029972;28;20134;-63
2022/10/27 05:58:08;;;;;;;11.88;6.78;;;14.30;83.70;;;;;;5024114;28;20088;-63
2022/10/27 06:00:37;;;;;;;10.93;6.38;;;14.30;83.70;;;;;;5011317;28;20112;-64
2022/10/27 06:03:06;;;;;;;8.60;5.32;;;14.30;83.60;;;;;;5011026;28;20455;-64
2022/10/27 06:05:35;;;;;;;11.75;6.38;;;14.30;83.60;;;;;;5013912;28;20030;-64
2022/10/27 06:08:01;;;;;;;9.77;5.90;;;14.30;83.60;;;;;;5012325;28;20120;-64
2022/10/27 06:10:28;;;;;;;9.40;5.60;;;14.30;83.60;;;;;;5013678;28;20435;-64
2022/10/27 06:13:04;;;;;;;10.30;5.47;;;14.30;83.60;;;;;;5011542;28;20026;-65
2022/10/27 06:15:31;;;;;;;11.70;5.38;;;14.30;83.60;;;;;;5017789;28;20026;-64
2022/10/27 06:17:56;;;;;;;10.18;5.50;;;14.30;83.60;;;;;;4996679;28;20378;-64
2022/10/27 06:20:22;;;;;;;10.50;5.93;;;14.30;83.40;;;;;;5012377;28;20029;-64
2022/10/27 06:22:48;;;;;;;8.85;5.18;;;14.30;83.40;;;;;;5013934;28;20018;-64
2022/10/27 06:25:14;;;;;;;8.90;5.47;;;14.40;83.50;;;;;;5011075;28;20116;-64
2022/10/27 06:27:40;;;;;;;11.60;6.22;;;14.40;83.40;;;;;;5012635;28;20184;-63
2022/10/27 06:30:06;;;;;;;10.77;6.25;;;14.40;83.40;;;;;;5013751;28;20498;-64
2022/10/27 06:32:36;;;;;;;10.70;6.13;;;14.40;83.40;;;;;;5020731;28;20395;-64
2022/10/27 06:35:04;;;;;;;11.10;5.77;;;14.40;83.50;;;;;;5013332;28;20079;-64
2022/10/27 06:37:30;;;;;;;10.63;6.43;;;14.50;83.40;;;;;;5018847;28;20280;-63
2022/10/27 06:39:55;;;;;;;13.70;7.28;;;14.40;83.40;;;;;;5023011;28;20038;-64
2022/10/27 06:42:21;;;;;;;14.73;7.57;;;14.40;83.40;;;;;;5010207;28;20057;-63
2022/10/27 06:44:50;;;;;;;13.88;8.10;;;14.50;83.50;;;;;;5010865;28;20033;-63
2022/10/27 06:47:16;;;;;;;13.93;8.43;;;14.50;83.40;;;;;;5013755;28;20030;-63
2022/10/27 06:49:41;;;;;;;16.98;8.75;;;14.50;83.40;;;;;;5016083;28;20033;-64
2022/10/27 06:52:07;;;;;;;17.50;8.70;;;14.50;83.40;;;;;;5010780;28;20030;-63
2022/10/27 06:54:33;;;;;;;15.38;8.95;;;14.50;83.40;;;;;;5012465;28;20356;-63
2022/10/27 06:56:58;;;;;;;15.27;8.73;;;14.50;83.40;;;;;;5013063;28;20052;-64
2022/10/27 06:59:24;;;;;;;15.48;8.38;;;14.60;83.50;;;;;;5014865;28;20056;-64
2022/10/27 07:01:50;;;;;;;18.33;9.95;;;14.60;83.40;;;;;;5015121;28;20068;-63
2022/10/27 07:04:15;;;;;;;17.23;9.88;;;14.60;83.30;;;;;;5015922;28;20041;-64
2022/10/27 07:06:41;;;;;;;15.10;8.77;;;14.70;83.30;;;;;;5013000;28;20126;-63
2022/10/27 07:09:06;;;;;;;16.13;8.90;;;14.70;83.30;;;;;;5016246;28;20053;-64
2022/10/27 07:11:32;;;;;;;13.45;7.93;;;14.70;83.30;;;;;;5010915;28;20033;-64
2022/10/27 07:13:58;;;;;;;13.95;7.90;;;14.70;83.30;;;;;;5014938;28;20030;-64
2022/10/27 07:16:23;;;;;;;13.27;7.05;;;14.70;83.30;;;;;;5012264;28;20026;-64
2022/10/27 07:18:49;;;;;;;12.07;7.40;;;14.80;83.40;;;;;;5013062;28;20044;-64
2022/10/27 07:21:15;;;;;;;14.30;7.40;;;14.80;83.40;;;;;;5013301;28;20030;-64
2022/10/27 07:23:41;;;;;;;11.05;6.07;;;14.80;83.30;;;;;;5011892;28;20034;-64
2022/10/27 07:26:07;;;;;;;10.43;5.88;;;14.80;83.40;;;;;;5010990;28;20033;-64
2022/10/27 07:28:32;;;;;;;10.23;5.25;;;14.90;83.40;;;;;;5014391;28;20034;-64
2022/10/27 07:30:58;;;;;;;9.32;5.28;;;14.90;83.40;;;;;;5014501;28;20045;-66
2022/10/27 07:33:24;;;;;;;9.00;5.43;;;14.90;83.40;;;;;;5015033;28;20108;-66
2022/10/27 07:35:51;;;;;;;10.25;5.15;;;15.00;83.40;;;;;;5015890;28;20044;-66
2022/10/27 07:38:18;;;;;;;9.93;5.45;;;15.00;83.40;;;;;;5016631;28;20399;-65
2022/10/27 07:40:43;;;;;;;9.18;5.07;;;15.00;83.40;;;;;;5015459;28;20619;-66
2022/10/27 07:43:09;;;;;;;8.98;5.50;;;15.10;83.40;;;;;;5019844;28;20135;-66
2022/10/27 07:45:40;;;;;;;11.50;6.50;;;15.10;83.40;;;;;;5034252;28;20038;-65
2022/10/27 07:48:11;;;;;;;11.70;6.07;;;15.20;83.40;;;;;;5034105;28;20469;-65
2022/10/27 07:50:37;;;;;;;10.52;5.63;;;15.20;83.30;;;;;;5020779;28;20049;-65
2022/10/27 07:53:03;;;;;;;11.25;5.60;;;15.20;83.30;;;;;;5032936;28;20037;-66
2022/10/27 07:55:30;;;;;;;10.50;5.75;;;15.20;83.30;;;;;;5013421;28;20167;-65
2022/10/27 07:58:06;;;;;;;9.70;5.40;;;15.30;83.20;;;;;;5020040;28;20473;-66
2022/10/27 08:00:33;;;;;;;10.55;4.82;;;15.40;83.30;;;;;;5027238;28;20109;-65
2022/10/27 08:03:04;;;;;;;9.25;4.82;;;15.40;83.10;;;;;;5014763;28;20444;-66
2022/10/27 08:05:32;;;;;;;10.10;5.00;;;15.40;83.10;;;;;;5028839;28;20040;-65
2022/10/27 08:07:59;;;;;;;8.85;4.80;;;15.40;83.10;;;;;;5018428;28;20483;-66
2022/10/27 08:10:25;;;;;;;11.32;5.40;;;15.50;83.20;;;;;;5025969;28;20379;-66
2022/10/27 08:12:51;;;;;;;10.07;5.05;;;15.50;83.20;;;;;;5024371;28;20041;-66
2022/10/27 08:15:16;;;;;;;12.88;5.38;;;15.50;83.20;;;;;;5015259;28;20339;-65
2022/10/27 08:17:42;;;;;;;10.40;5.30;;;15.50;83.20;;;;;;5023270;28;20465;-66
2022/10/27 08:20:09;;;;;;;14.55;5.40;;;15.60;83.20;;;;;;5024878;28;20030;-66
2022/10/27 08:22:35;;;;;;;9.95;4.75;;;15.60;83.20;;;;;;5018514;28;20109;-66
2022/10/27 08:25:01;;;;;;;10.88;5.95;;;15.70;83.20;;;;;;5027792;28;20033;-66
2022/10/27 08:27:27;;;;;;;13.20;5.93;;;15.70;83.10;;;;;;5019136;28;20072;-66
2022/10/27 08:29:52;;;;;;;14.13;5.70;;;15.80;83.10;;;;;;5035017;28;20053;-66
2022/10/27 08:32:18;;;;;;;13.90;5.53;;;15.90;83.00;;;;;;5024578;28;20065;-66
2022/10/27 08:34:44;;;;;;;11.05;5.47;;;16.00;82.90;;;;;;5034663;28;20108;-66
2022/10/27 08:37:09;;;;;;;10.68;4.78;;;16.10;82.70;;;;;;5027851;28;20034;-66
2022/10/27 08:39:35;;;;;;;13.25;5.07;;;16.20;82.50;;;;;;5018069;28;20029;-66
2022/10/27 08:42:02;;;;;;;10.52;4.43;;;16.30;82.40;;;;;;5029448;28;20037;-66
2022/10/27 08:44:47;;;;;;;8.98;3.90;;;16.40;82.30;;;;;;5015566;28;20025;-66
2022/10/27 08:47:23;;;;;;;10.02;4.82;;;16.50;82.10;;;;;;5017135;28;20033;-66
2022/10/27 08:50:03;;;;;;;10.27;4.47;;;16.50;82.00;;;;;;5016564;28;20362;-66
2022/10/27 08:52:44;;;;;;;12.30;5.40;;;16.60;81.90;;;;;;5013380;28;20370;-66
2022/10/27 08:55:13;;;;;;;8.95;4.50;;;16.60;81.90;;;;;;5019041;28;20038;-66
2022/10/27 08:58:01;;;;;;;8.70;4.35;;;16.70;81.90;;;;;;5021003;28;20040;-66
2022/10/27 09:00:31;;;;;;;11.10;4.43;;;16.80;82.40;;;;;;5020974;28;20040;-65
2022/10/27 09:03:15;;;;;;;7.88;4.03;;;16.80;81.50;;;;;;5027998;28;20061;-66
2022/10/27 09:05:58;;;;;;;14.23;10.10;;;16.90;81.40;;;;;;5023082;28;20109;-66
2022/10/27 09:08:47;;;;;;;65.68;57.78;;;17.00;81.20;;;;;;5030192;28;20022;-66
2022/10/27 09:11:57;;;;;;;20.63;15.90;;;17.10;81.00;;;;;;5017985;28;20022;-66
2022/10/27 09:14:47;;;;;;;12.60;8.65;;;17.20;80.80;;;;;;5019249;28;20178;-66
2022/10/27 09:17:35;;;;;;;10.82;6.18;;;17.30;80.60;;;;;;5019229;28;20034;-66
2022/10/27 09:20:15;;;;;;;11.48;5.22;;;17.40;80.50;;;;;;5011684;28;20042;-66
2022/10/27 09:22:41;;;;;;;9.63;4.80;;;17.40;80.40;;;;;;5007789;28;20030;-66
2022/10/27 09:25:19;;;;;;;7.93;3.75;;;17.50;80.40;;;;;;5013383;28;20045;-66
2022/10/27 09:27:50;;;;;;;10.77;3.95;;;17.50;80.20;;;;;;5013884;28;20025;-66
2022/10/27 09:30:16;;;;;;;8.13;3.63;;;17.60;80.10;;;;;;5013185;28;20074;-67
2022/10/27 09:32:47;;;;;;;9.63;3.50;;;17.80;79.90;;;;;;5010118;28;20031;-66
2022/10/27 09:35:31;;;;;;;9.05;3.97;;;17.90;79.50;;;;;;5008843;28;20036;-67
2022/10/27 09:37:58;;;;;;;8.90;3.88;;;18.00;79.00;;;;;;5013702;28;20069;-66
2022/10/27 09:40:25;;;;;;;9.00;3.40;;;18.10;78.70;;;;;;5028360;28;20042;-66
2022/10/27 09:42:54;;;;;;;7.85;3.50;;;18.30;78.50;;;;;;5016244;28;20369;-67
2022/10/27 09:45:22;;;;;;;8.00;3.08;;;18.40;78.20;;;;;;5014221;28;20051;-67
2022/10/27 09:48:01;;;;;;;6.57;3.05;;;18.50;77.90;;;;;;5026493;28;20121;-67
2022/10/27 09:50:51;;;;;;;6.85;3.00;;;18.60;77.40;;;;;;5013179;28;20034;-67
2022/10/27 09:53:38;;;;;;;5.95;2.60;;;18.80;77.10;;;;;;5020729;28;20029;-67
2022/10/27 09:56:06;;;;;;;8.05;2.83;;;18.90;76.80;;;;;;5031499;28;20053;-67
2022/10/27 09:58:46;;;;;;;7.50;2.28;;;19.10;76.60;;;;;;5025203;28;20109;-67
2022/10/27 10:01:13;;;;;;;5.85;2.42;;;19.20;76.30;;;;;;5029165;28;20025;-68
2022/10/27 10:03:39;;;;;;;7.10;2.38;;;19.20;76.20;;;;;;5012868;28;20534;-67
2022/10/27 10:06:23;;;;;;;6.53;2.10;;;19.20;76.10;;;;;;5026816;28;20052;-68
2022/10/27 10:08:48;;;;;;;6.25;2.20;;;19.20;75.90;;;;;;5021579;28;20037;-68
2022/10/27 10:11:21;;;;;;;4.50;1.70;;;19.20;75.80;;;;;;5029174;28;20029;-72
2022/10/27 10:14:02;;;;;;;6.13;2.00;;;19.30;75.70;;;;;;5022000;28;20029;-68
2022/10/27 10:16:29;;;;;;;6.25;2.08;;;19.20;75.30;;;;;;5027654;28;20397;-68
2022/10/27 10:18:59;;;;;;;4.20;1.50;;;19.30;75.40;;;;;;5013227;28;20121;-68
2022/10/27 10:21:25;;;;;;;6.07;1.80;;;19.20;75.30;;;;;;5018143;28;20034;-69
2022/10/27 10:23:53;;;;;;;4.90;2.00;;;19.20;75.30;;;;;;5022995;28;20021;-68
2022/10/27 10:26:28;;;;;;;4.80;1.80;;;19.30;75.20;;;;;;5019458;28;20088;-69
2022/10/27 10:29:03;;;;;;;5.28;1.92;;;19.50;74.90;;;;;;5028062;28;20021;-69
2022/10/27 10:31:30;;;;;;;4.22;2.05;;;19.70;74.60;;;;;;5025730;28;20058;-68
2022/10/27 10:34:03;;;;;;;6.35;2.10;;;19.90;74.20;;;;;;5015186;28;20073;-69
2022/10/27 10:36:39;;;;;;;6.38;1.92;;;20.00;73.60;;;;;;5017546;28;20039;-69
2022/10/27 10:39:31;;;;;;;6.07;1.98;;;20.20;73.20;;;;;;5024114;28;20060;-70
2022/10/27 10:42:09;;;;;;;6.50;2.28;;;20.40;72.40;;;;;;5033515;28;20048;-69
2022/10/27 10:44:35;;;;;;;7.40;2.30;;;20.50;72.00;;;;;;5034596;28;20036;-69
2022/10/27 10:47:02;;;;;;;10.52;4.75;;;20.50;71.90;;;;;;5035638;28;20461;-69
2022/10/27 10:49:41;;;;;;;8.98;4.70;;;20.40;71.80;;;;;;5017501;28;20035;-69
2022/10/27 10:52:19;;;;;;;7.10;2.55;;;20.30;71.60;;;;;;5037466;28;20037;-68
2022/10/27 10:54:45;;;;;;;7.03;2.58;;;20.20;71.60;;;;;;5028304;28;20109;-69
2022/10/27 10:57:22;;;;;;;8.07;2.20;;;20.20;71.80;;;;;;5017818;28;20069;-68
2022/10/27 10:59:53;;;;;;;5.43;1.85;;;20.20;71.50;;;;;;5030558;28;20446;-69
2022/10/27 11:02:30;;;;;;;5.70;2.00;;;20.20;71.50;;;;;;5021879;28;20425;-68
2022/10/27 11:05:08;;;;;;;4.85;1.73;;;20.20;71.50;;;;;;5021941;28;20025;-68
2022/10/27 11:07:34;;;;;;;4.25;1.60;;;20.10;71.40;;;;;;5033602;28;20026;-69
2022/10/27 11:10:17;;;;;;;6.00;2.10;;;20.10;71.20;;;;;;5034980;28;20037;-69
2022/10/27 11:13:10;;;;;;;6.40;1.48;;;20.20;71.20;;;;;;5030186;28;20057;-68
2022/10/27 11:16:10;;;;;;;5.45;1.90;;;20.20;71.20;;;;;;5028216;28;20076;-69
2022/10/27 11:18:54;;;;;;;6.88;1.90;;;20.20;71.10;;;;;;5014976;28;20410;-69
2022/10/27 11:21:44;;;;;;;5.47;1.83;;;20.10;71.10;;;;;;5026112;28;20431;-69
2022/10/27 11:24:20;;;;;;;3.97;1.73;;;20.10;71.00;;;;;;5024307;28;20339;-69
2022/10/27 11:27:02;;;;;;;5.20;1.85;;;20.00;71.10;;;;;;5008362;28;20629;-69
2022/10/27 11:29:43;;;;;;;5.70;1.52;;;20.00;71.00;;;;;;5012171;28;20091;-68
2022/10/27 11:32:11;;;;;;;5.82;1.77;;;20.00;71.10;;;;;;5025830;28;20026;-70
2022/10/27 11:34:46;;;;;;;4.78;1.60;;;20.10;70.90;;;;;;5016195;28;20038;-69
2022/10/27 11:37:31;;;;;;;5.88;2.10;;;20.10;70.70;;;;;;5028046;28;20030;-68
2022/10/27 11:40:21;;;;;;;6.18;2.05;;;20.10;70.50;;;;;;5010407;28;20050;-69
2022/10/27 11:42:58;;;;;;;6.65;1.90;;;20.10;70.60;;;;;;5000566;28;20117;-68
2022/10/27 11:45:52;;;;;;;5.15;1.65;;;20.00;70.70;;;;;;5004272;28;20026;-68
2022/10/27 11:48:34;;;;;;;6.20;1.98;;;20.00;70.70;;;;;;5004463;28;20355;-69
2022/10/27 11:51:35;;;;;;;5.35;1.40;;;19.90;70.70;;;;;;5001231;28;20019;-69
2022/10/27 11:54:01;;;;;;;5.43;1.50;;;19.90;70.80;;;;;;5006356;28;20112;-69
2022/10/27 11:56:42;;;;;;;4.57;1.85;;;19.80;70.90;;;;;;4998149;28;20105;-68
2022/10/27 11:59:31;;;;;;;4.10;1.65;;;19.90;70.80;;;;;;5019639;28;20124;-68
2022/10/27 12:02:10;;;;;;;5.63;2.00;;;19.90;71.00;;;;;;5001046;28;20041;-68
2022/10/27 12:04:59;;;;;;;5.57;1.92;;;19.90;71.00;;;;;;5002813;28;20455;-68
2022/10/27 12:07:30;;;;;;;5.20;1.77;;;19.90;70.80;;;;;;5003715;28;20514;-68
2022/10/27 12:10:26;;;;;;;3.90;1.80;;;19.80;70.90;;;;;;4999072;28;20116;-68
2022/10/27 12:12:58;;;;;;;6.57;2.05;;;19.80;71.00;;;;;;4999860;28;20033;-68
2022/10/27 12:15:49;;;;;;;5.05;1.60;;;19.80;71.60;;;;;;5003987;28;20060;-68
2022/10/27 12:18:42;;;;;;;5.10;1.70;;;19.80;70.90;;;;;;5001142;28;20108;-68
2022/10/27 12:21:17;;;;;;;5.00;1.90;;;19.80;71.10;;;;;;4995964;28;20030;-68
2022/10/27 12:23:52;;;;;;;4.63;1.70;;;19.80;71.20;;;;;;5002890;28;20478;-68
2022/10/27 12:26:24;;;;;;;6.13;2.05;;;19.80;71.20;;;;;;4997148;28;20038;-68
2022/10/27 12:28:51;;;;;;;3.60;1.63;;;19.80;71.30;;;;;;4998491;28;20034;-68
2022/10/27 12:31:25;;;;;;;5.72;1.65;;;19.80;71.30;;;;;;5012880;28;20053;-69
2022/10/27 12:33:59;;;;;;;5.35;1.80;;;19.70;71.30;;;;;;5010538;28;20060;-68
2022/10/27 12:36:37;;;;;;;4.32;1.70;;;19.80;71.40;;;;;;5023473;28;20458;-68
2022/10/27 12:39:20;;;;;;;4.80;1.73;;;19.70;71.50;;;;;;5029993;28;20386;-68
2022/10/27 12:42:04;;;;;;;4.47;1.65;;;19.70;71.50;;;;;;5004025;28;20476;-68
2022/10/27 12:44:48;;;;;;;4.75;1.85;;;19.70;71.60;;;;;;5020196;28;20061;-68
2022/10/27 12:47:44;;;;;;;6.75;2.30;;;19.70;71.60;;;;;;5025766;28;20092;-68
2022/10/27 12:50:30;;;;;;;6.22;1.77;;;19.70;71.70;;;;;;5025790;28;20441;-68
2022/10/27 12:53:39;;;;;;;4.65;1.60;;;19.70;71.80;;;;;;5028436;28;20030;-68
2022/10/27 12:56:16;;;;;;;6.88;1.88;;;19.70;71.80;;;;;;5019482;28;20319;-68
2022/10/27 12:58:53;;;;;;;6.22;2.08;;;19.60;71.90;;;;;;5026728;28;20025;-67
2022/10/27 13:01:24;;;;;;;10.18;2.35;;;19.60;72.10;;;;;;5022555;28;20033;-69
2022/10/27 13:03:57;;;;;;;;;;;19.60;72.30;;;;;;5035388;28;20047;-68